Capitol Logistics 233


KSMF
Sacramento International Airport
Sacramento, California, US
KPHX
Phoenix Sky Harbor International Airport
Phoenix, Arizona, US

Activity Log

Date Flight Route Aircraft Duration
07/29/2019 CPX233 SCTWN2 SCTWN DOSCO OAL LIDAT BTY J92 BLD PRFUM WOTRO BRUSR1 B763 1h 58m
05/09/2019 CPX233 RVRCT DOSCO OAL LIDAT BTY J92 BLD PRFUM WOTRO BRUSR1 B763 1h 38m

Route Details

Aircraft Information
Primary: Boeing 767-300BDSF
Backup: Not Available
Route Data
Distance: 562nm
Sched. Duration: 1h 50m
Avg. Duration: 1h 48m (-2m)
Times Flown: 2
Recm'd Route: SCTWN2 SCTWN DOSCO OAL LIDAT BTY J92 BLD PRFUM WOTRO BRUSR1
Planned Altitude: 37,000ft
Origin Wx: KSMF 071453Z 32006KT 10SM BKN090 OVC110 08/07 A3010 RMK AO2 SLP191 T00780072 53018
Dest. Wx: KPHX 071451Z 09005KT 10SM CLR 17/02 A3004 RMK AO2 SLP159 T01670017 53016
Notes:

Financial History
Total Freight: 131,918lbs
Average Load: 65,959lbs/flt
Fuel Used: 38,546lbs
Avg. Fuel Used: 19,273lbs/flt
Fuel Expense: $42,015
Avg. Fuel Expense: $21,008
Avg. Fuel Cost: $1.09/lbs
Total Gross Income: $167,536
Pilot Pay: $298
Total Expenses: $18,198
Total Revenue: $106,734
Average Revenue: $83,767.93